sensor_id;sensor_type;location;lat;lon;timestamp;pressure;altitude;pressure_sealevel;temperature;humidity
74079;BME280;62437;51.544;-3.276;2022-07-29T00:00:38;101155.05;;;17.87;41.85
74079;BME280;62437;51.544;-3.276;2022-07-29T00:03:04;101158.09;;;17.92;41.70
74079;BME280;62437;51.544;-3.276;2022-07-29T00:05:30;101157.62;;;17.93;42.41
74079;BME280;62437;51.544;-3.276;2022-07-29T00:07:55;101158.40;;;18.13;41.53
74079;BME280;62437;51.544;-3.276;2022-07-29T00:10:21;101154.68;;;17.71;41.71
74079;BME280;62437;51.544;-3.276;2022-07-29T00:12:47;101150.86;;;17.76;42.23
74079;BME280;62437;51.544;-3.276;2022-07-29T00:15:13;101151.12;;;18.16;42.02
74079;BME280;62437;51.544;-3.276;2022-07-29T00:17:38;101151.12;;;17.80;41.97
74079;BME280;62437;51.544;-3.276;2022-07-29T00:20:05;101147.22;;;17.76;42.12
74079;BME280;62437;51.544;-3.276;2022-07-29T00:22:30;101148.54;;;17.52;43.49
74079;BME280;62437;51.544;-3.276;2022-07-29T00:24:55;101150.78;;;17.83;42.15
74079;BME280;62437;51.544;-3.276;2022-07-29T00:27:21;101152.37;;;17.72;42.27
74079;BME280;62437;51.544;-3.276;2022-07-29T00:29:47;101153.53;;;17.83;42.09
74079;BME280;62437;51.544;-3.276;2022-07-29T00:32:12;101152.21;;;17.72;42.26
74079;BME280;62437;51.544;-3.276;2022-07-29T00:34:38;101152.20;;;17.41;42.77
74079;BME280;62437;51.544;-3.276;2022-07-29T00:37:04;101154.43;;;17.45;43.01
74079;BME280;62437;51.544;-3.276;2022-07-29T00:39:29;101157.38;;;17.39;43.21
74079;BME280;62437;51.544;-3.276;2022-07-29T00:41:55;101156.78;;;17.05;43.34
74079;BME280;62437;51.544;-3.276;2022-07-29T00:44:21;101156.78;;;17.08;42.94
74079;BME280;62437;51.544;-3.276;2022-07-29T00:46:46;101161.53;;;17.46;42.62
74079;BME280;62437;51.544;-3.276;2022-07-29T00:49:12;101159.58;;;17.60;43.16
74079;BME280;62437;51.544;-3.276;2022-07-29T00:51:37;101160.73;;;16.76;43.44
74079;BME280;62437;51.544;-3.276;2022-07-29T00:54:04;101156.70;;;16.86;43.60
74079;BME280;62437;51.544;-3.276;2022-07-29T00:56:30;101157.06;;;16.90;43.55
74079;BME280;62437;51.544;-3.276;2022-07-29T00:58:54;101153.73;;;16.91;43.66
74079;BME280;62437;51.544;-3.276;2022-07-29T01:01:19;101156.77;;;16.77;43.06
74079;BME280;62437;51.544;-3.276;2022-07-29T01:03:45;101158.72;;;17.15;43.13
74079;BME280;62437;51.544;-3.276;2022-07-29T01:06:11;101153.30;;;16.83;42.89
74079;BME280;62437;51.544;-3.276;2022-07-29T01:08:36;101155.93;;;16.77;42.93
74079;BME280;62437;51.544;-3.276;2022-07-29T01:11:02;101156.17;;;16.66;43.31
74079;BME280;62437;51.544;-3.276;2022-07-29T01:13:28;101155.42;;;17.03;42.79
74079;BME280;62437;51.544;-3.276;2022-07-29T01:15:57;101155.20;;;16.64;42.89
74079;BME280;62437;51.544;-3.276;2022-07-29T01:18:24;101152.40;;;16.95;43.14
74079;BME280;62437;51.544;-3.276;2022-07-29T01:21:02;101151.22;;;16.99;43.60
74079;BME280;62437;51.544;-3.276;2022-07-29T01:30:27;101157.14;;;16.45;43.09
74079;BME280;62437;51.544;-3.276;2022-07-29T01:32:58;101153.36;;;17.03;43.17
74079;BME280;62437;51.544;-3.276;2022-07-29T01:35:22;101153.60;;;16.46;43.85
74079;BME280;62437;51.544;-3.276;2022-07-29T01:37:49;101160.16;;;16.27;43.80
74079;BME280;62437;51.544;-3.276;2022-07-29T01:40:15;101159.51;;;16.72;43.24
74079;BME280;62437;51.544;-3.276;2022-07-29T01:42:36;101158.34;;;16.50;43.46
74079;BME280;62437;51.544;-3.276;2022-07-29T01:45:06;101157.37;;;16.77;43.74
74079;BME280;62437;51.544;-3.276;2022-07-29T01:47:33;101158.50;;;16.50;43.62
74079;BME280;62437;51.544;-3.276;2022-07-29T01:49:56;101159.67;;;16.63;43.39
74079;BME280;62437;51.544;-3.276;2022-07-29T01:52:23;101156.88;;;16.38;43.26
74079;BME280;62437;51.544;-3.276;2022-07-29T01:54:48;101157.93;;;16.67;42.97
74079;BME280;62437;51.544;-3.276;2022-07-29T01:57:11;101155.41;;;16.60;43.10
74079;BME280;62437;51.544;-3.276;2022-07-29T01:59:35;101157.60;;;16.30;44.30
74079;BME280;62437;51.544;-3.276;2022-07-29T02:02:01;101157.02;;;16.42;43.35
74079;BME280;62437;51.544;-3.276;2022-07-29T02:04:27;101156.62;;;16.60;43.70
74079;BME280;62437;51.544;-3.276;2022-07-29T02:06:53;101157.40;;;16.58;43.81
74079;BME280;62437;51.544;-3.276;2022-07-29T02:09:18;101158.97;;;16.38;43.51
74079;BME280;62437;51.544;-3.276;2022-07-29T02:11:50;101159.40;;;16.28;43.50
74079;BME280;62437;51.544;-3.276;2022-07-29T02:14:10;101159.64;;;16.04;43.53
74079;BME280;62437;51.544;-3.276;2022-07-29T02:16:37;101156.43;;;16.11;43.58
74079;BME280;62437;51.544;-3.276;2022-07-29T02:19:01;101155.27;;;16.05;43.81
74079;BME280;62437;51.544;-3.276;2022-07-29T02:21:26;101155.12;;;16.08;43.87
74079;BME280;62437;51.544;-3.276;2022-07-29T02:23:51;101149.20;;;16.24;43.71
74079;BME280;62437;51.544;-3.276;2022-07-29T02:26:17;101147.29;;;15.78;44.02
74079;BME280;62437;51.544;-3.276;2022-07-29T02:28:42;101142.83;;;15.55;43.83
74079;BME280;62437;51.544;-3.276;2022-07-29T02:31:07;101142.66;;;15.81;44.06
74079;BME280;62437;51.544;-3.276;2022-07-29T02:33:34;101143.80;;;15.84;44.14
74079;BME280;62437;51.544;-3.276;2022-07-29T02:35:59;101143.36;;;16.21;43.41
74079;BME280;62437;51.544;-3.276;2022-07-29T02:38:25;101144.41;;;15.63;44.11
74079;BME280;62437;51.544;-3.276;2022-07-29T02:40:50;101149.01;;;15.91;44.62
74079;BME280;62437;51.544;-3.276;2022-07-29T02:43:17;101151.14;;;15.60;44.03
74079;BME280;62437;51.544;-3.276;2022-07-29T02:45:41;101153.84;;;15.62;44.47
74079;BME280;62437;51.544;-3.276;2022-07-29T02:48:13;101153.37;;;15.46;44.56
74079;BME280;62437;51.544;-3.276;2022-07-29T02:50:34;101153.33;;;15.48;44.06
74079;BME280;62437;51.544;-3.276;2022-07-29T02:53:00;101149.73;;;15.84;43.89
74079;BME280;62437;51.544;-3.276;2022-07-29T02:55:28;101151.16;;;15.89;43.39
74079;BME280;62437;51.544;-3.276;2022-07-29T02:57:55;101152.70;;;16.14;43.30
74079;BME280;62437;51.544;-3.276;2022-07-29T03:00:16;101158.67;;;15.66;43.56
74079;BME280;62437;51.544;-3.276;2022-07-29T03:02:44;101156.59;;;15.49;43.77
74079;BME280;62437;51.544;-3.276;2022-07-29T03:05:09;101159.07;;;15.49;44.60
74079;BME280;62437;51.544;-3.276;2022-07-29T03:07:31;101158.07;;;14.78;45.50
74079;BME280;62437;51.544;-3.276;2022-07-29T03:09:57;101161.34;;;15.77;44.49
74079;BME280;62437;51.544;-3.276;2022-07-29T03:12:22;101159.63;;;15.26;44.14
74079;BME280;62437;51.544;-3.276;2022-07-29T03:14:48;101159.26;;;15.59;44.82
74079;BME280;62437;51.544;-3.276;2022-07-29T03:17:13;101160.81;;;15.36;44.45
74079;BME280;62437;51.544;-3.276;2022-07-29T03:29:21;101162.35;;;15.15;44.64
74079;BME280;62437;51.544;-3.276;2022-07-29T03:31:47;101159.46;;;15.23;44.83
74079;BME280;62437;51.544;-3.276;2022-07-29T03:34:12;101161.02;;;14.97;44.97
74079;BME280;62437;51.544;-3.276;2022-07-29T03:36:38;101163.60;;;15.02;45.37
74079;BME280;62437;51.544;-3.276;2022-07-29T03:39:04;101165.21;;;15.37;45.09
74079;BME280;62437;51.544;-3.276;2022-07-29T03:41:30;101165.50;;;15.12;45.03
74079;BME280;62437;51.544;-3.276;2022-07-29T03:43:55;101168.30;;;14.81;45.31
74079;BME280;62437;51.544;-3.276;2022-07-29T03:46:22;101169.10;;;15.00;45.00
74079;BME280;62437;51.544;-3.276;2022-07-29T03:48:48;101169.40;;;14.73;45.18
74079;BME280;62437;51.544;-3.276;2022-07-29T03:51:12;101172.97;;;14.62;45.29
74079;BME280;62437;51.544;-3.276;2022-07-29T03:53:37;101167.75;;;14.90;45.15
74079;BME280;62437;51.544;-3.276;2022-07-29T03:56:04;101172.26;;;14.82;45.28
74079;BME280;62437;51.544;-3.276;2022-07-29T03:58:30;101170.30;;;15.17;44.55
74079;BME280;62437;51.544;-3.276;2022-07-29T04:00:54;101167.74;;;14.98;44.53
74079;BME280;62437;51.544;-3.276;2022-07-29T04:03:19;101169.15;;;14.85;45.12
74079;BME280;62437;51.544;-3.276;2022-07-29T04:05:45;101172.89;;;15.03;44.66
74079;BME280;62437;51.544;-3.276;2022-07-29T04:08:10;101174.12;;;15.09;44.80
74079;BME280;62437;51.544;-3.276;2022-07-29T04:10:36;101174.57;;;15.01;44.31
74079;BME280;62437;51.544;-3.276;2022-07-29T04:13:01;101176.56;;;15.15;44.30
74079;BME280;62437;51.544;-3.276;2022-07-29T04:15:27;101182.01;;;14.85;44.85
74079;BME280;62437;51.544;-3.276;2022-07-29T04:17:52;101180.94;;;15.06;44.44
74079;BME280;62437;51.544;-3.276;2022-07-29T04:20:18;101185.65;;;15.04;44.33
74079;BME280;62437;51.544;-3.276;2022-07-29T04:22:44;101193.60;;;14.76;45.15
74079;BME280;62437;51.544;-3.276;2022-07-29T04:25:09;101194.03;;;14.73;45.21
74079;BME280;62437;51.544;-3.276;2022-07-29T04:27:35;101200.16;;;14.38;45.66
74079;BME280;62437;51.544;-3.276;2022-07-29T04:30:00;101204.26;;;14.41;45.42
74079;BME280;62437;51.544;-3.276;2022-07-29T04:32:26;101207.59;;;14.25;45.60
74079;BME280;62437;51.544;-3.276;2022-07-29T04:34:52;101206.80;;;14.85;45.44
74079;BME280;62437;51.544;-3.276;2022-07-29T04:37:18;101207.76;;;14.24;45.62
74079;BME280;62437;51.544;-3.276;2022-07-29T04:39:43;101213.77;;;14.15;46.38
74079;BME280;62437;51.544;-3.276;2022-07-29T04:42:09;101212.53;;;14.32;46.36
74079;BME280;62437;51.544;-3.276;2022-07-29T04:44:34;101210.17;;;14.41;45.25
74079;BME280;62437;51.544;-3.276;2022-07-29T04:47:00;101209.35;;;14.69;45.39
74079;BME280;62437;51.544;-3.276;2022-07-29T04:49:26;101210.27;;;14.55;45.17
74079;BME280;62437;51.544;-3.276;2022-07-29T04:51:51;101210.35;;;14.35;46.15
74079;BME280;62437;51.544;-3.276;2022-07-29T04:54:17;101212.65;;;14.27;45.70
74079;BME280;62437;51.544;-3.276;2022-07-29T04:56:42;101205.46;;;14.64;44.77
74079;BME280;62437;51.544;-3.276;2022-07-29T04:59:08;101201.32;;;14.37;45.82
74079;BME280;62437;51.544;-3.276;2022-07-29T05:01:35;101200.05;;;14.17;45.47
74079;BME280;62437;51.544;-3.276;2022-07-29T05:04:00;101201.09;;;14.09;45.72
74079;BME280;62437;51.544;-3.276;2022-07-29T05:06:26;101202.72;;;14.43;45.54
74079;BME280;62437;51.544;-3.276;2022-07-29T05:08:51;101202.16;;;14.42;45.81
74079;BME280;62437;51.544;-3.276;2022-07-29T05:11:17;101200.47;;;14.86;44.80
74079;BME280;62437;51.544;-3.276;2022-07-29T05:13:42;101202.14;;;14.78;44.23
74079;BME280;62437;51.544;-3.276;2022-07-29T05:16:08;101200.47;;;14.97;44.55
74079;BME280;62437;51.544;-3.276;2022-07-29T05:18:34;101200.05;;;15.04;44.73
74079;BME280;62437;51.544;-3.276;2022-07-29T05:20:59;101205.62;;;14.64;44.22
74079;BME280;62437;51.544;-3.276;2022-07-29T05:23:24;101207.52;;;14.95;44.74
74079;BME280;62437;51.544;-3.276;2022-07-29T05:25:51;101205.15;;;15.09;43.97
74079;BME280;62437;51.544;-3.276;2022-07-29T05:28:16;101206.03;;;15.00;44.89
74079;BME280;62437;51.544;-3.276;2022-07-29T05:30:42;101204.85;;;15.20;44.16
74079;BME280;62437;51.544;-3.276;2022-07-29T05:33:07;101202.96;;;15.13;43.84
74079;BME280;62437;51.544;-3.276;2022-07-29T05:35:33;101199.60;;;15.36;45.48
74079;BME280;62437;51.544;-3.276;2022-07-29T05:37:59;101197.18;;;15.29;44.12
74079;BME280;62437;51.544;-3.276;2022-07-29T05:40:24;101200.11;;;15.65;43.79
74079;BME280;62437;51.544;-3.276;2022-07-29T05:42:50;101201.29;;;15.34;43.81
74079;BME280;62437;51.544;-3.276;2022-07-29T05:45:15;101204.96;;;15.45;44.94
74079;BME280;62437;51.544;-3.276;2022-07-29T05:47:41;101212.41;;;15.84;44.08
74079;BME280;62437;51.544;-3.276;2022-07-29T05:50:07;101217.69;;;15.94;43.58
74079;BME280;62437;51.544;-3.276;2022-07-29T05:52:32;101223.11;;;16.08;43.65
74079;BME280;62437;51.544;-3.276;2022-07-29T05:54:58;101230.67;;;16.30;43.21
74079;BME280;62437;51.544;-3.276;2022-07-29T05:57:24;101240.19;;;16.32;42.81
74079;BME280;62437;51.544;-3.276;2022-07-29T05:59:50;101245.82;;;16.29;43.73
74079;BME280;62437;51.544;-3.276;2022-07-29T06:02:15;101247.02;;;16.37;43.17
74079;BME280;62437;51.544;-3.276;2022-07-29T06:04:41;101243.70;;;16.29;42.99
74079;BME280;62437;51.544;-3.276;2022-07-29T06:07:06;101245.17;;;16.30;43.45
74079;BME280;62437;51.544;-3.276;2022-07-29T06:09:32;101242.90;;;16.44;43.36
74079;BME280;62437;51.544;-3.276;2022-07-29T06:11:57;101248.16;;;16.45;43.73
74079;BME280;62437;51.544;-3.276;2022-07-29T06:14:23;101248.35;;;16.48;44.01
74079;BME280;62437;51.544;-3.276;2022-07-29T06:16:48;101249.39;;;17.03;43.72
74079;BME280;62437;51.544;-3.276;2022-07-29T06:19:13;101253.37;;;16.92;43.73
74079;BME280;62437;51.544;-3.276;2022-07-29T06:21:44;101255.50;;;16.44;44.46
74079;BME280;62437;51.544;-3.276;2022-07-29T06:24:05;101256.00;;;16.65;43.47
74079;BME280;62437;51.544;-3.276;2022-07-29T06:26:30;101257.30;;;16.74;43.71
74079;BME280;62437;51.544;-3.276;2022-07-29T06:28:55;101257.99;;;16.73;43.54
74079;BME280;62437;51.544;-3.276;2022-07-29T06:31:20;101258.03;;;17.17;43.84
74079;BME280;62437;51.544;-3.276;2022-07-29T06:33:46;101254.96;;;17.06;43.89
74079;BME280;62437;51.544;-3.276;2022-07-29T06:36:12;101257.26;;;17.09;43.28
74079;BME280;62437;51.544;-3.276;2022-07-29T06:38:37;101257.35;;;17.13;43.76
74079;BME280;62437;51.544;-3.276;2022-07-29T06:41:03;101257.93;;;17.56;44.20
74079;BME280;62437;51.544;-3.276;2022-07-29T06:43:30;101255.91;;;17.54;43.44
74079;BME280;62437;51.544;-3.276;2022-07-29T06:45:54;101258.94;;;17.52;44.18
74079;BME280;62437;51.544;-3.276;2022-07-29T06:48:19;101261.43;;;17.74;43.56
74079;BME280;62437;51.544;-3.276;2022-07-29T06:50:45;101261.72;;;17.80;45.04
74079;BME280;62437;51.544;-3.276;2022-07-29T06:53:11;101259.77;;;17.94;44.94
74079;BME280;62437;51.544;-3.276;2022-07-29T06:55:37;101256.59;;;17.88;44.24
74079;BME280;62437;51.544;-3.276;2022-07-29T06:58:02;101255.78;;;17.64;44.87
74079;BME280;62437;51.544;-3.276;2022-07-29T07:00:27;101251.41;;;18.02;44.41
74079;BME280;62437;51.544;-3.276;2022-07-29T07:02:52;101254.20;;;17.65;45.06
74079;BME280;62437;51.544;-3.276;2022-07-29T07:05:18;101251.08;;;17.78;44.43
74079;BME280;62437;51.544;-3.276;2022-07-29T07:07:43;101251.74;;;17.72;45.20
74079;BME280;62437;51.544;-3.276;2022-07-29T07:10:09;101255.72;;;17.29;45.44
74079;BME280;62437;51.544;-3.276;2022-07-29T07:12:34;101255.30;;;17.84;45.38
74079;BME280;62437;51.544;-3.276;2022-07-29T07:14:59;101256.79;;;17.36;45.49
74079;BME280;62437;51.544;-3.276;2022-07-29T07:17:25;101250.97;;;17.69;44.85
74079;BME280;62437;51.544;-3.276;2022-07-29T07:19:51;101251.11;;;17.93;44.95
74079;BME280;62437;51.544;-3.276;2022-07-29T07:22:16;101250.18;;;18.00;44.50
74079;BME280;62437;51.544;-3.276;2022-07-29T07:24:42;101249.88;;;18.08;44.87
74079;BME280;62437;51.544;-3.276;2022-07-29T07:27:07;101249.65;;;18.10;44.90
74079;BME280;62437;51.544;-3.276;2022-07-29T07:29:33;101252.21;;;18.33;44.86
74079;BME280;62437;51.544;-3.276;2022-07-29T07:31:58;101254.32;;;18.13;45.27
74079;BME280;62437;51.544;-3.276;2022-07-29T07:34:23;101255.26;;;17.97;45.22
74079;BME280;62437;51.544;-3.276;2022-07-29T07:36:49;101254.29;;;17.93;45.29
74079;BME280;62437;51.544;-3.276;2022-07-29T07:39:14;101255.49;;;18.24;45.56
74079;BME280;62437;51.544;-3.276;2022-07-29T07:41:41;101259.85;;;18.20;45.25
74079;BME280;62437;51.544;-3.276;2022-07-29T07:44:05;101256.96;;;17.93;45.95
74079;BME280;62437;51.544;-3.276;2022-07-29T07:46:31;101259.30;;;18.49;45.21
74079;BME280;62437;51.544;-3.276;2022-07-29T07:48:56;101260.40;;;18.49;44.94
74079;BME280;62437;51.544;-3.276;2022-07-29T07:51:22;101261.32;;;18.30;45.73
74079;BME280;62437;51.544;-3.276;2022-07-29T07:53:47;101264.43;;;18.68;45.38
74079;BME280;62437;51.544;-3.276;2022-07-29T07:56:12;101264.46;;;18.72;45.03
74079;BME280;62437;51.544;-3.276;2022-07-29T07:58:39;101260.34;;;18.91;44.98
74079;BME280;62437;51.544;-3.276;2022-07-29T08:01:04;101258.22;;;18.53;46.15
74079;BME280;62437;51.544;-3.276;2022-07-29T08:03:30;101261.71;;;18.98;45.24
74079;BME280;62437;51.544;-3.276;2022-07-29T08:05:55;101259.29;;;18.73;45.31
74079;BME280;62437;51.544;-3.276;2022-07-29T08:08:20;101259.19;;;19.08;45.06
74079;BME280;62437;51.544;-3.276;2022-07-29T08:10:46;101257.79;;;18.89;45.14
74079;BME280;62437;51.544;-3.276;2022-07-29T08:13:11;101253.84;;;19.45;44.84
74079;BME280;62437;51.544;-3.276;2022-07-29T08:15:39;101255.84;;;19.41;44.60
74079;BME280;62437;51.544;-3.276;2022-07-29T08:18:03;101254.36;;;19.20;45.10
74079;BME280;62437;51.544;-3.276;2022-07-29T08:20:27;101253.81;;;19.42;44.92
74079;BME280;62437;51.544;-3.276;2022-07-29T08:22:53;101255.18;;;19.47;45.44
74079;BME280;62437;51.544;-3.276;2022-07-29T08:25:18;101253.75;;;19.21;45.45
74079;BME280;62437;51.544;-3.276;2022-07-29T08:27:44;101252.14;;;19.28;45.66
74079;BME280;62437;51.544;-3.276;2022-07-29T08:30:10;101252.18;;;19.63;45.05
74079;BME280;62437;51.544;-3.276;2022-07-29T08:32:35;101249.07;;;19.60;44.85
74079;BME280;62437;51.544;-3.276;2022-07-29T08:35:00;101252.59;;;19.59;45.55
74079;BME280;62437;51.544;-3.276;2022-07-29T08:37:26;101247.70;;;20.00;44.36
74079;BME280;62437;51.544;-3.276;2022-07-29T08:39:52;101241.50;;;20.50;44.20
74079;BME280;62437;51.544;-3.276;2022-07-29T08:42:17;101240.52;;;20.13;43.98
74079;BME280;62437;51.544;-3.276;2022-07-29T08:44:42;101236.81;;;20.41;44.05
74079;BME280;62437;51.544;-3.276;2022-07-29T08:47:08;101243.33;;;20.32;45.03
74079;BME280;62437;51.544;-3.276;2022-07-29T08:49:34;101248.30;;;19.23;47.11
74079;BME280;62437;51.544;-3.276;2022-07-29T08:52:00;101250.13;;;19.59;46.28
74079;BME280;62437;51.544;-3.276;2022-07-29T08:54:25;101250.59;;;20.52;44.40
74079;BME280;62437;51.544;-3.276;2022-07-29T08:56:51;101252.02;;;21.18;43.63
74079;BME280;62437;51.544;-3.276;2022-07-29T08:59:16;101256.10;;;21.52;43.17
74079;BME280;62437;51.544;-3.276;2022-07-29T09:01:41;101257.22;;;21.16;43.21
74079;BME280;62437;51.544;-3.276;2022-07-29T09:04:14;101254.33;;;21.91;42.60
74079;BME280;62437;51.544;-3.276;2022-07-29T09:06:34;101249.66;;;22.03;42.76
74079;BME280;62437;51.544;-3.276;2022-07-29T09:08:58;101248.63;;;21.94;42.25
74079;BME280;62437;51.544;-3.276;2022-07-29T09:11:22;101249.12;;;22.04;42.61
74079;BME280;62437;51.544;-3.276;2022-07-29T09:13:48;101255.33;;;21.47;42.69
74079;BME280;62437;51.544;-3.276;2022-07-29T09:16:13;101256.90;;;21.68;42.41
74079;BME280;62437;51.544;-3.276;2022-07-29T09:18:40;101260.70;;;21.52;43.65
74079;BME280;62437;51.544;-3.276;2022-07-29T09:21:06;101259.64;;;22.26;42.39
74079;BME280;62437;51.544;-3.276;2022-07-29T09:23:30;101259.11;;;22.40;41.99
74079;BME280;62437;51.544;-3.276;2022-07-29T09:26:02;101257.91;;;22.51;41.57
74079;BME280;62437;51.544;-3.276;2022-07-29T09:28:21;101254.90;;;22.58;41.87
74079;BME280;62437;51.544;-3.276;2022-07-29T09:30:51;101255.49;;;22.58;41.65
74079;BME280;62437;51.544;-3.276;2022-07-29T09:33:13;101264.20;;;22.69;41.89
74079;BME280;62437;51.544;-3.276;2022-07-29T09:35:38;101264.87;;;22.49;42.24
74079;BME280;62437;51.544;-3.276;2022-07-29T09:38:10;101268.27;;;22.72;41.29
74079;BME280;62437;51.544;-3.276;2022-07-29T09:40:29;101267.43;;;23.13;41.52
74079;BME280;62437;51.544;-3.276;2022-07-29T09:42:54;101268.56;;;22.99;41.42
74079;BME280;62437;51.544;-3.276;2022-07-29T09:45:28;101272.32;;;23.04;41.21
74079;BME280;62437;51.544;-3.276;2022-07-29T09:47:46;101268.10;;;23.19;40.68
74079;BME280;62437;51.544;-3.276;2022-07-29T09:50:11;101270.13;;;23.37;40.93
74079;BME280;62437;51.544;-3.276;2022-07-29T09:52:45;101270.12;;;23.59;40.55
74079;BME280;62437;51.544;-3.276;2022-07-29T09:55:05;101265.62;;;23.62;40.46
74079;BME280;62437;51.544;-3.276;2022-07-29T09:57:28;101269.13;;;23.88;40.02
74079;BME280;62437;51.544;-3.276;2022-07-29T09:59:56;101266.06;;;24.02;39.82
74079;BME280;62437;51.544;-3.276;2022-07-29T10:02:19;101274.06;;;23.42;41.05
74079;BME280;62437;51.544;-3.276;2022-07-29T10:04:44;101274.32;;;23.31;40.82
74079;BME280;62437;51.544;-3.276;2022-07-29T10:07:09;101273.41;;;23.13;41.55
74079;BME280;62437;51.544;-3.276;2022-07-29T10:09:35;101271.93;;;23.94;40.31
74079;BME280;62437;51.544;-3.276;2022-07-29T10:12:06;101271.69;;;23.88;40.60
74079;BME280;62437;51.544;-3.276;2022-07-29T10:14:25;101272.70;;;24.27;39.55
74079;BME280;62437;51.544;-3.276;2022-07-29T10:16:51;101271.62;;;23.94;40.45
74079;BME280;62437;51.544;-3.276;2022-07-29T10:19:17;101269.79;;;24.24;39.43
74079;BME280;62437;51.544;-3.276;2022-07-29T10:21:42;101271.16;;;24.54;38.70
74079;BME280;62437;51.544;-3.276;2022-07-29T10:24:09;101271.21;;;24.49;38.94
74079;BME280;62437;51.544;-3.276;2022-07-29T10:26:33;101272.28;;;24.58;38.04
74079;BME280;62437;51.544;-3.276;2022-07-29T10:28:58;101272.89;;;24.71;38.89
74079;BME280;62437;51.544;-3.276;2022-07-29T10:31:28;101267.28;;;25.03;38.02
74079;BME280;62437;51.544;-3.276;2022-07-29T10:34:00;101268.06;;;24.41;37.63
74079;BME280;62437;51.544;-3.276;2022-07-29T10:36:25;101266.37;;;24.42;38.63
74079;BME280;62437;51.544;-3.276;2022-07-29T10:38:44;101264.54;;;25.06;38.29
74079;BME280;62437;51.544;-3.276;2022-07-29T10:41:18;101267.38;;;24.81;38.22
74079;BME280;62437;51.544;-3.276;2022-07-29T10:43:34;101264.37;;;25.28;37.31
74079;BME280;62437;51.544;-3.276;2022-07-29T10:45:59;101263.35;;;23.97;39.20
74079;BME280;62437;51.544;-3.276;2022-07-29T10:48:23;101253.69;;;25.15;37.67
74079;BME280;62437;51.544;-3.276;2022-07-29T10:50:56;101256.57;;;24.72;37.68
74079;BME280;62437;51.544;-3.276;2022-07-29T10:53:14;101262.29;;;25.08;37.71
74079;BME280;62437;51.544;-3.276;2022-07-29T10:55:40;101261.54;;;25.43;35.82
74079;BME280;62437;51.544;-3.276;2022-07-29T10:58:13;101254.60;;;25.32;36.41
74079;BME280;62437;51.544;-3.276;2022-07-29T11:00:32;101246.35;;;25.55;35.44
74079;BME280;62437;51.544;-3.276;2022-07-29T11:02:56;101242.02;;;25.19;37.21
74079;BME280;62437;51.544;-3.276;2022-07-29T11:05:22;101240.85;;;25.67;34.09
74079;BME280;62437;51.544;-3.276;2022-07-29T11:10:22;101249.66;;;23.75;39.30
74079;BME280;62437;51.544;-3.276;2022-07-29T11:12:47;101244.30;;;24.70;37.06
74079;BME280;62437;51.544;-3.276;2022-07-29T11:15:05;101237.57;;;24.64;35.68
74079;BME280;62437;51.544;-3.276;2022-07-29T11:22:33;101225.39;;;25.14;34.37
74079;BME280;62437;51.544;-3.276;2022-07-29T11:27:15;101228.54;;;24.49;38.24
74079;BME280;62437;51.544;-3.276;2022-07-29T11:29:41;101226.02;;;24.93;37.77
74079;BME280;62437;51.544;-3.276;2022-07-29T11:32:10;101233.93;;;25.39;35.85
74079;BME280;62437;51.544;-3.276;2022-07-29T11:34:30;101238.73;;;25.35;36.47
74079;BME280;62437;51.544;-3.276;2022-07-29T11:39:26;101237.04;;;24.30;37.88
74079;BME280;62437;51.544;-3.276;2022-07-29T11:41:46;101239.76;;;25.15;34.89
74079;BME280;62437;51.544;-3.276;2022-07-29T11:44:11;101243.43;;;26.04;33.64
74079;BME280;62437;51.544;-3.276;2022-07-29T11:46:46;101242.77;;;26.06;33.37
74079;BME280;62437;51.544;-3.276;2022-07-29T11:49:02;101252.24;;;25.97;32.81
74079;BME280;62437;51.544;-3.276;2022-07-29T11:51:28;101254.35;;;25.53;35.11
74079;BME280;62437;51.544;-3.276;2022-07-29T11:53:54;101252.02;;;26.24;32.29
74079;BME280;62437;51.544;-3.276;2022-07-29T11:56:21;101249.43;;;25.54;36.77
74079;BME280;62437;51.544;-3.276;2022-07-29T11:58:45;101253.73;;;26.05;30.68
74079;BME280;62437;51.544;-3.276;2022-07-29T12:01:17;101254.99;;;25.76;33.41
74079;BME280;62437;51.544;-3.276;2022-07-29T12:03:36;101250.70;;;26.30;32.44
74079;BME280;62437;51.544;-3.276;2022-07-29T12:06:03;101255.48;;;26.25;31.37
74079;BME280;62437;51.544;-3.276;2022-07-29T12:08:27;101253.89;;;25.51;34.14
74079;BME280;62437;51.544;-3.276;2022-07-29T12:10:53;101245.58;;;24.81;36.94
74079;BME280;62437;51.544;-3.276;2022-07-29T12:13:20;101239.75;;;26.26;33.52
74079;BME280;62437;51.544;-3.276;2022-07-29T12:15:51;101237.87;;;24.93;36.45
74079;BME280;62437;51.544;-3.276;2022-07-29T12:18:11;101235.90;;;25.73;36.22
74079;BME280;62437;51.544;-3.276;2022-07-29T12:20:35;101234.09;;;26.15;32.28
74079;BME280;62437;51.544;-3.276;2022-07-29T12:23:06;101239.46;;;26.45;32.13
74079;BME280;62437;51.544;-3.276;2022-07-29T12:25:26;101243.60;;;25.72;33.42
74079;BME280;62437;51.544;-3.276;2022-07-29T12:27:58;101243.57;;;25.87;32.87
74079;BME280;62437;51.544;-3.276;2022-07-29T12:30:17;101248.42;;;26.28;32.50
74079;BME280;62437;51.544;-3.276;2022-07-29T12:32:46;101242.38;;;26.85;30.76
74079;BME280;62437;51.544;-3.276;2022-07-29T12:35:11;101227.22;;;26.65;31.56
74079;BME280;62437;51.544;-3.276;2022-07-29T12:37:35;101215.82;;;26.44;31.50
74079;BME280;62437;51.544;-3.276;2022-07-29T12:39:59;101223.95;;;25.55;36.90
74079;BME280;62437;51.544;-3.276;2022-07-29T12:42:25;101228.98;;;26.61;34.54
74079;BME280;62437;51.544;-3.276;2022-07-29T12:44:51;101228.52;;;24.88;38.42
74079;BME280;62437;51.544;-3.276;2022-07-29T12:47:18;101232.25;;;25.10;36.76
74079;BME280;62437;51.544;-3.276;2022-07-29T12:49:42;101237.43;;;25.85;35.03
74079;BME280;62437;51.544;-3.276;2022-07-29T12:52:23;101234.16;;;26.74;31.57
74079;BME280;62437;51.544;-3.276;2022-07-29T12:54:33;101226.39;;;27.17;30.29
74079;BME280;62437;51.544;-3.276;2022-07-29T12:56:59;101225.02;;;27.41;30.92
74079;BME280;62437;51.544;-3.276;2022-07-29T12:59:24;101235.56;;;26.77;32.40